Time;durP1;ratioP1;P1;durP2;ratioP2;P2;SDS_P1;SDS_P2;PMS_P1;PMS_P2;Temp;Humidity;BMP_temperature;BMP_pressure;BME280_temperature;BME280_humidity;BME280_pressure;Samples;Min_cycle;Max_cycle;Signal;HPM_P1;HPM_P2
2022/09/28 00:01:38;;;;;;;7.93;6.55;;;7.80;99.90;;;;;;5000189;28;87753;-31
2022/09/28 00:04:05;;;;;;;14.93;8.43;;;7.80;99.90;;;;;;5000710;28;88877;-32
2022/09/28 00:06:31;;;;;;;10.20;7.13;;;7.80;99.90;;;;;;4999649;28;89862;-33
2022/09/28 00:08:57;;;;;;;9.70;7.70;;;7.80;99.90;;;;;;5000612;28;89005;-32
2022/09/28 00:11:26;;;;;;;8.93;7.80;;;7.80;99.90;;;;;;4992550;28;89617;-29
2022/09/28 00:14:01;;;;;;;9.23;7.65;;;7.80;99.90;;;;;;5000804;28;90645;-30
2022/09/28 00:16:30;;;;;;;9.93;8.00;;;7.80;99.90;;;;;;4984801;28;90124;-33
2022/09/28 00:18:56;;;;;;;11.90;8.80;;;7.90;99.90;;;;;;5000155;28;90548;-30
2022/09/28 00:21:25;;;;;;;13.77;9.07;;;7.80;99.90;;;;;;5000279;28;88870;-30
2022/09/28 00:24:11;;;;;;;12.00;8.35;;;7.90;99.90;;;;;;5000502;28;90428;-31
2022/09/28 00:26:38;;;;;;;9.80;7.95;;;7.90;99.90;;;;;;4999865;28;90058;-32
2022/09/28 00:29:04;;;;;;;10.90;8.67;;;7.90;99.90;;;;;;4981221;28;89243;-31
2022/09/28 00:31:32;;;;;;;12.25;9.25;;;7.90;99.90;;;;;;5000401;28;89046;-32
2022/09/28 00:33:59;;;;;;;;;;;7.90;99.90;;;;;;5000435;28;92025;-30
2022/09/28 00:36:27;;;;;;;14.55;9.35;;;7.90;99.90;;;;;;5000952;28;89817;-29
2022/09/28 00:38:56;;;;;;;11.97;9.17;;;7.90;99.90;;;;;;4999278;28;89439;-30
2022/09/28 00:41:23;;;;;;;12.13;9.32;;;8.00;99.90;;;;;;4999283;28;90352;-34
2022/09/28 00:43:49;;;;;;;12.70;10.13;;;8.00;99.90;;;;;;5000435;28;90751;-29
2022/09/28 00:46:19;;;;;;;11.45;9.82;;;8.00;99.90;;;;;;5036981;22;90220;-32
2022/09/28 00:48:55;;;;;;;8.80;7.93;;;8.00;99.90;;;;;;4987887;28;91121;-31
2022/09/28 00:51:22;;;;;;;11.75;10.65;;;8.00;99.90;;;;;;4999015;28;88769;-29
2022/09/28 00:53:50;;;;;;;13.07;9.75;;;8.00;99.90;;;;;;4999362;28;88372;-33
2022/09/28 00:56:18;;;;;;;12.40;11.07;;;8.00;99.90;;;;;;4999430;28;89530;-30
2022/09/28 00:58:50;;;;;;;14.10;10.07;;;8.00;99.90;;;;;;4999494;28;89625;-30
2022/09/28 01:01:16;;;;;;;16.80;11.98;;;8.00;99.90;;;;;;4999224;28;87891;-32
2022/09/28 01:03:44;;;;;;;13.32;11.65;;;8.00;99.90;;;;;;4998291;28;89560;-31
2022/09/28 01:06:23;;;;;;;14.23;11.18;;;8.00;99.90;;;;;;4998125;28;90010;-32
2022/09/28 01:08:52;;;;;;;16.08;11.60;;;8.00;99.90;;;;;;4998489;28;89435;-31
2022/09/28 01:11:18;;;;;;;13.55;10.65;;;8.10;99.90;;;;;;4998420;28;89850;-34
2022/09/28 01:13:47;;;;;;;12.48;10.48;;;8.00;99.90;;;;;;4998965;28;90218;-33
2022/09/28 01:16:39;;;;;;;14.98;10.48;;;8.00;99.90;;;;;;4998289;28;89461;-30
2022/09/28 01:19:10;;;;;;;11.27;10.13;;;8.00;99.90;;;;;;4993743;28;89245;-31
2022/09/28 01:22:06;;;;;;;11.73;10.48;;;8.00;99.90;;;;;;4989842;28;90193;-32
2022/09/28 01:24:55;;;;;;;12.20;10.45;;;7.90;99.90;;;;;;4998956;28;90225;-32
2022/09/28 01:27:49;;;;;;;16.05;9.40;;;7.80;99.90;;;;;;4998010;28;89926;-30
2022/09/28 01:30:17;;;;;;;14.77;9.68;;;7.70;99.90;;;;;;4999154;28;90046;-31
2022/09/28 01:32:48;;;;;;;10.63;8.93;;;7.60;99.90;;;;;;4998791;28;89263;-31
2022/09/28 01:35:38;;;;;;;10.77;8.85;;;7.60;99.90;;;;;;4999425;28;88918;-30
2022/09/28 01:38:17;;;;;;;12.00;8.60;;;7.50;99.90;;;;;;4999297;28;89824;-31
2022/09/28 01:40:43;;;;;;;9.82;8.85;;;7.40;99.90;;;;;;4999421;28;89964;-31
2022/09/28 01:43:23;;;;;;;12.00;9.20;;;7.30;99.90;;;;;;4999360;28;89743;-28
2022/09/28 01:46:17;;;;;;;9.80;8.68;;;7.20;99.90;;;;;;4998913;28;90354;-31
2022/09/28 01:49:03;;;;;;;9.32;8.30;;;7.10;99.90;;;;;;4998707;28;89731;-29
2022/09/28 01:51:41;;;;;;;10.80;8.45;;;7.10;99.90;;;;;;4998328;28;89549;-31
2022/09/28 01:54:19;;;;;;;10.15;9.05;;;7.10;99.90;;;;;;4999785;28;89618;-30
2022/09/28 01:56:53;;;;;;;9.50;8.63;;;7.10;99.90;;;;;;4998768;28;90294;-32
2022/09/28 01:59:24;;;;;;;10.65;8.73;;;7.00;99.90;;;;;;4998769;28;91774;-28
2022/09/28 02:02:11;;;;;;;10.10;8.48;;;7.00;99.90;;;;;;4998302;28;90309;-31
2022/09/28 02:05:13;;;;;;;14.60;11.27;;;7.00;99.90;;;;;;5001188;28;89617;-30
2022/09/28 02:07:46;;;;;;;11.40;9.15;;;6.90;99.90;;;;;;5001693;28;90274;-29
2022/09/28 02:10:18;;;;;;;12.57;8.98;;;6.90;99.90;;;;;;5001974;28;89237;-34
2022/09/28 02:12:50;;;;;;;15.00;8.52;;;6.80;99.90;;;;;;5001751;28;89624;-29
2022/09/28 02:15:34;;;;;;;54.65;12.02;;;6.80;99.90;;;;;;5002607;28;90182;-31
2022/09/28 02:17:59;;;;;;;13.55;7.78;;;6.70;99.90;;;;;;5002287;28;90213;-29
2022/09/28 02:20:25;;;;;;;58.92;9.65;;;6.60;99.90;;;;;;5002122;28;89731;-30
2022/09/28 02:22:54;;;;;;;77.45;13.05;;;6.50;99.90;;;;;;5001420;28;89699;-29
2022/09/28 02:25:41;;;;;;;8.35;7.55;;;6.40;99.90;;;;;;5000345;28;89302;-31
2022/09/28 02:28:10;;;;;;;100.10;14.80;;;6.30;99.90;;;;;;5002412;28;90221;-31
2022/09/28 02:30:38;;;;;;;106.65;14.73;;;6.30;99.90;;;;;;5000809;28;90031;-33
2022/09/28 02:33:20;;;;;;;52.85;10.68;;;6.30;99.90;;;;;;5001768;28;89178;-31
2022/09/28 02:35:46;;;;;;;95.53;14.18;;;6.20;99.90;;;;;;5000933;28;89802;-33
2022/09/28 02:38:13;;;;;;;88.20;12.10;;;6.10;99.90;;;;;;5001673;28;90610;-34
2022/09/28 02:40:41;;;;;;;107.40;12.88;;;6.00;99.90;;;;;;5000781;28;89821;-32
2022/09/28 02:43:12;;;;;;;16.05;5.90;;;6.00;99.90;;;;;;5001107;28;89037;-31
2022/09/28 02:45:43;;;;;;;82.97;12.55;;;6.00;99.90;;;;;;5001575;28;88798;-33
2022/09/28 02:48:27;;;;;;;57.40;11.07;;;6.10;99.90;;;;;;4986745;28;90220;-32
2022/09/28 02:51:19;;;;;;;66.05;12.90;;;6.10;99.90;;;;;;5000806;28;90490;-30
2022/09/28 02:54:23;;;;;;;49.05;10.10;;;6.20;99.90;;;;;;5001314;28;90197;-31
2022/09/28 02:57:08;;;;;;;113.80;16.95;;;6.30;99.90;;;;;;4976607;28;89020;-32
2022/09/28 02:59:46;;;;;;;44.65;12.90;;;6.30;99.90;;;;;;5001111;28;90228;-32
2022/09/28 03:02:24;;;;;;;110.75;15.98;;;6.40;99.90;;;;;;5000739;28;89415;-33
2022/09/28 03:04:55;;;;;;;27.92;7.82;;;6.50;99.90;;;;;;5000795;28;89719;-32
2022/09/28 03:07:32;;;;;;;81.93;17.35;;;6.50;99.90;;;;;;5001887;28;88906;-31
2022/09/28 03:10:23;;;;;;;83.50;18.80;;;6.50;99.90;;;;;;5001217;28;89921;-29
2022/09/28 03:12:51;;;;;;;65.82;12.30;;;6.60;99.90;;;;;;5000347;28;89203;-33
2022/09/28 03:15:29;;;;;;;55.63;13.20;;;6.60;99.90;;;;;;5000472;28;90050;-31
2022/09/28 03:17:58;;;;;;;97.05;18.30;;;6.60;99.90;;;;;;5000814;28;90412;-29
2022/09/28 03:20:25;;;;;;;39.70;10.60;;;6.60;99.90;;;;;;4998801;28;91571;-30
2022/09/28 03:22:51;;;;;;;38.03;10.85;;;6.60;99.90;;;;;;4987783;28;89586;-30
2022/09/28 03:25:17;;;;;;;35.58;10.30;;;6.60;99.90;;;;;;5000386;28;89916;-33
2022/09/28 03:27:43;;;;;;;10.50;7.70;;;6.60;99.90;;;;;;5000451;28;88932;-31
2022/09/28 03:30:10;;;;;;;19.45;10.18;;;6.60;99.90;;;;;;5001535;28;90421;-31
2022/09/28 03:32:35;;;;;;;21.35;9.63;;;6.60;99.90;;;;;;4999883;28;89853;-31
2022/09/28 03:35:01;;;;;;;9.15;8.20;;;6.60;99.90;;;;;;5000333;28;89592;-32
2022/09/28 03:37:27;;;;;;;21.70;9.60;;;6.60;99.90;;;;;;5000439;28;89501;-32
2022/09/28 03:39:53;;;;;;;12.45;8.95;;;6.50;99.90;;;;;;5001122;28;90785;-31
2022/09/28 03:42:19;;;;;;;29.80;10.05;;;6.50;99.90;;;;;;5000146;28;90774;-30
2022/09/28 03:44:44;;;;;;;20.00;8.95;;;6.50;99.90;;;;;;5000285;28;90452;-33
2022/09/28 03:47:10;;;;;;;31.60;8.93;;;6.40;99.90;;;;;;5000263;28;89659;-33
2022/09/28 03:49:36;;;;;;;8.75;7.82;;;6.30;99.90;;;;;;5001127;28;90891;-31
2022/09/28 03:52:02;;;;;;;9.60;8.23;;;6.30;99.90;;;;;;5000368;28;89823;-29
2022/09/28 03:54:28;;;;;;;11.45;8.20;;;6.20;99.90;;;;;;5000680;28;89586;-32
2022/09/28 03:56:54;;;;;;;10.68;9.52;;;6.10;99.90;;;;;;5000262;28;89006;-30
2022/09/28 03:59:19;;;;;;;10.50;8.40;;;6.10;99.90;;;;;;4999982;28;90196;-33
2022/09/28 04:01:48;;;;;;;7.65;6.70;;;6.10;99.90;;;;;;5000752;28;89781;-31
2022/09/28 04:04:13;;;;;;;;;;;6.10;99.90;;;;;;5000812;28;89115;-32
2022/09/28 04:06:40;;;;;;;8.20;6.13;;;6.00;99.90;;;;;;5000824;28;88850;-29
2022/09/28 04:09:05;;;;;;;17.63;9.63;;;6.00;99.90;;;;;;5000742;28;90314;-33
2022/09/28 04:11:31;;;;;;;44.47;12.63;;;6.00;99.90;;;;;;4999888;28;89756;-31
2022/09/28 04:13:57;;;;;;;37.53;14.30;;;6.10;99.90;;;;;;4999865;28;88003;-31
2022/09/28 04:16:22;;;;;;;85.05;18.05;;;6.10;99.90;;;;;;4999409;28;88495;-29
2022/09/28 04:18:48;;;;;;;151.68;22.73;;;6.20;99.90;;;;;;4999225;28;90162;-29
2022/09/28 04:21:16;;;;;;;82.20;21.40;;;6.30;99.90;;;;;;4999386;28;89565;-34
2022/09/28 04:23:42;;;;;;;50.60;16.80;;;6.40;99.90;;;;;;4999849;28;89978;-30
2022/09/28 04:26:15;;;;;;;194.23;29.17;;;6.40;99.90;;;;;;4998597;28;89092;-32
2022/09/28 04:31:26;;;;;;;72.72;17.42;;;6.50;99.90;;;;;;4998135;28;90468;-34
2022/09/28 04:33:52;;;;;;;102.68;20.08;;;6.50;99.90;;;;;;4998733;28;90561;-31
2022/09/28 04:36:18;;;;;;;118.70;20.05;;;6.60;99.90;;;;;;4999184;28;89543;-30
2022/09/28 04:38:44;;;;;;;91.88;19.73;;;6.60;99.90;;;;;;4999318;28;90080;-29
2022/09/28 04:41:11;;;;;;;105.30;35.53;;;6.60;99.90;;;;;;4998999;28;89802;-31
2022/09/28 04:43:37;;;;;;;32.63;14.95;;;6.60;99.90;;;;;;4999070;28;90457;-30
2022/09/28 04:46:05;;;;;;;44.53;16.58;;;6.60;99.90;;;;;;4998656;28;88624;-30
2022/09/28 04:48:31;;;;;;;51.50;16.00;;;6.60;99.90;;;;;;4994155;28;90661;-28
2022/09/28 04:50:58;;;;;;;57.28;18.30;;;6.60;99.90;;;;;;4999349;28;89492;-30
2022/09/28 04:53:25;;;;;;;31.35;13.32;;;6.60;99.90;;;;;;4998362;28;89814;-29
2022/09/28 04:56:15;;;;;;;25.15;14.35;;;6.60;99.90;;;;;;4998663;28;90201;-30
2022/09/28 04:58:41;;;;;;;57.17;16.60;;;6.60;99.90;;;;;;4998576;28;90177;-30
2022/09/28 05:01:14;;;;;;;38.38;13.13;;;6.60;99.90;;;;;;4998765;28;89218;-29
2022/09/28 05:03:39;;;;;;;44.30;15.57;;;6.60;99.90;;;;;;4998879;28;89593;-32
2022/09/28 05:06:05;;;;;;;27.17;15.05;;;6.70;99.90;;;;;;4999024;28;89519;-29
2022/09/28 05:08:31;;;;;;;85.57;19.02;;;6.70;99.90;;;;;;4993859;28;90223;-32
2022/09/28 05:11:05;;;;;;;65.10;19.20;;;6.70;99.90;;;;;;4969531;28;90066;-31
2022/09/28 05:13:31;;;;;;;59.20;17.45;;;6.70;99.90;;;;;;4975734;28;89817;-32
2022/09/28 05:15:57;;;;;;;86.55;19.98;;;6.70;99.90;;;;;;4970343;28;89381;-32
2022/09/28 05:18:23;;;;;;;53.83;16.80;;;6.70;99.90;;;;;;4979109;28;90185;-28
2022/09/28 05:20:49;;;;;;;187.88;28.63;;;6.70;99.90;;;;;;4996694;28;89766;-28
2022/09/28 05:23:15;;;;;;;149.32;26.17;;;6.80;99.90;;;;;;4998461;28;90666;-30
2022/09/28 05:25:42;;;;;;;52.85;17.90;;;6.80;99.90;;;;;;4999061;28;88447;-30
2022/09/28 05:28:08;;;;;;;167.77;27.75;;;6.80;99.90;;;;;;4973394;28;89733;-32
2022/09/28 05:30:35;;;;;;;136.32;25.30;;;6.80;99.90;;;;;;4966575;28;89392;-33
2022/09/28 05:33:01;;;;;;;154.57;31.58;;;6.80;99.90;;;;;;4977707;28;89844;-31
2022/09/28 05:35:28;;;;;;;45.25;18.27;;;6.90;99.90;;;;;;4978589;28;89382;-31
2022/09/28 05:37:54;;;;;;;77.45;19.10;;;6.90;99.90;;;;;;4978805;28;89828;-31
2022/09/28 05:40:20;;;;;;;61.42;20.42;;;6.90;99.90;;;;;;4981448;28;90238;-33
2022/09/28 05:42:45;;;;;;;244.45;34.88;;;6.90;99.90;;;;;;4971947;28;89502;-33
2022/09/28 05:45:11;;;;;;;66.00;20.73;;;6.90;99.90;;;;;;4981854;28;89136;-28
2022/09/28 05:47:38;;;;;;;91.90;22.27;;;6.90;99.90;;;;;;4981129;28;89937;-31
2022/09/28 05:50:05;;;;;;;37.17;17.10;;;6.90;99.90;;;;;;4981869;28;89119;-30
2022/09/28 05:52:31;;;;;;;45.20;18.33;;;7.00;99.90;;;;;;4981945;28;89947;-30
2022/09/28 05:54:56;;;;;;;56.97;18.35;;;7.00;99.90;;;;;;4981289;28;88173;-31
2022/09/28 05:57:22;;;;;;;49.33;16.05;;;7.00;99.90;;;;;;4976821;28;90663;-31
2022/09/28 05:59:47;;;;;;;33.53;15.52;;;7.00;99.90;;;;;;4976902;28;90507;-32
2022/09/28 06:02:13;;;;;;;35.80;15.23;;;7.00;99.90;;;;;;4981406;28;89639;-30
2022/09/28 06:04:39;;;;;;;32.97;15.23;;;7.00;99.90;;;;;;4981127;28;88018;-31
2022/09/28 06:07:04;;;;;;;60.60;16.00;;;7.00;99.90;;;;;;4981492;28;90145;-32
2022/09/28 06:09:30;;;;;;;59.67;16.40;;;7.00;99.90;;;;;;4980833;28;89777;-32
2022/09/28 06:11:58;;;;;;;47.22;15.10;;;7.10;99.90;;;;;;4980400;28;90221;-30
2022/09/28 06:14:24;;;;;;;23.63;14.10;;;7.10;99.90;;;;;;4981685;28;89355;-30
2022/09/28 06:16:50;;;;;;;53.22;13.93;;;7.10;99.90;;;;;;4976888;28;89675;-31
2022/09/28 06:19:16;;;;;;;46.78;15.30;;;7.10;99.90;;;;;;4986535;28;90099;-29
2022/09/28 06:21:42;;;;;;;86.78;19.38;;;7.10;99.90;;;;;;5000536;28;89839;-29
2022/09/28 06:24:07;;;;;;;69.13;17.02;;;7.00;99.90;;;;;;5001014;28;88896;-30
2022/09/28 06:26:33;;;;;;;20.88;11.75;;;7.10;99.90;;;;;;5001217;28;89805;-30
2022/09/28 06:29:02;;;;;;;25.23;13.50;;;7.10;99.90;;;;;;5001800;28;89696;-29
2022/09/28 06:31:28;;;;;;;52.67;15.40;;;7.10;99.90;;;;;;5000800;28;89879;-32
2022/09/28 06:33:54;;;;;;;67.60;17.35;;;7.20;99.90;;;;;;5000107;28;89230;-30
2022/09/28 06:36:21;;;;;;;52.08;15.23;;;7.20;99.90;;;;;;5001275;28;90361;-29
2022/09/28 06:38:46;;;;;;;33.63;14.52;;;7.20;99.90;;;;;;5001215;28;89515;-31
2022/09/28 06:41:12;;;;;;;59.15;13.90;;;7.20;99.90;;;;;;5000794;28;88523;-29
2022/09/28 06:43:38;;;;;;;78.60;15.45;;;7.20;99.90;;;;;;5001194;28;88765;-30
2022/09/28 06:46:05;;;;;;;41.70;13.27;;;7.30;99.90;;;;;;5000625;28;89397;-30
2022/09/28 06:48:32;;;;;;;121.78;23.08;;;7.30;99.90;;;;;;5001652;28;89981;-33
2022/09/28 06:50:59;;;;;;;43.50;13.68;;;7.30;99.90;;;;;;5000288;28;90358;-33
2022/09/28 06:53:27;;;;;;;99.90;19.02;;;7.30;99.90;;;;;;5000091;28;88431;-32
2022/09/28 06:55:53;;;;;;;55.80;14.97;;;7.30;99.90;;;;;;5000375;28;89992;-30
2022/09/28 06:58:20;;;;;;;51.22;15.68;;;7.40;99.90;;;;;;5000238;28;90434;-29
2022/09/28 07:00:48;;;;;;;14.68;12.05;;;7.40;99.90;;;;;;5001049;28;90832;-32
2022/09/28 07:03:17;;;;;;;17.70;11.02;;;7.50;99.90;;;;;;4999898;28;89019;-31
2022/09/28 07:05:45;;;;;;;39.20;13.90;;;7.50;99.90;;;;;;5000388;28;90222;-32
2022/09/28 07:08:11;;;;;;;21.13;12.30;;;7.50;99.90;;;;;;4999763;28;89860;-30
2022/09/28 07:10:48;;;;;;;32.55;13.20;;;7.50;99.90;;;;;;5001582;28;90318;-29
2022/09/28 07:13:15;;;;;;;31.67;12.43;;;7.60;99.90;;;;;;5000194;28;90164;-33
2022/09/28 07:15:42;;;;;;;22.35;12.52;;;7.60;99.90;;;;;;5000707;28;90630;-33
2022/09/28 07:18:09;;;;;;;35.35;13.25;;;7.70;99.90;;;;;;5000518;28;89252;-33
2022/09/28 07:20:36;;;;;;;55.70;15.13;;;7.80;99.90;;;;;;5000113;28;89682;-31
2022/09/28 07:23:04;;;;;;;75.75;21.27;;;7.80;99.90;;;;;;4999590;28;88729;-30
2022/09/28 07:25:31;;;;;;;51.65;15.65;;;7.80;99.90;;;;;;5000137;28;90320;-31
2022/09/28 07:27:58;;;;;;;46.92;15.15;;;7.80;99.90;;;;;;5000118;28;89644;-30
2022/09/28 07:30:26;;;;;;;13.68;11.30;;;7.70;99.90;;;;;;5000709;28;89334;-30
2022/09/28 07:32:52;;;;;;;50.10;19.55;;;7.80;99.90;;;;;;5000178;28;89759;-30
2022/09/28 07:35:18;;;;;;;18.05;11.60;;;7.80;99.90;;;;;;4999582;28;89548;-31
2022/09/28 07:37:43;;;;;;;16.05;13.40;;;7.90;99.90;;;;;;5000133;28;89982;-30
2022/09/28 07:42:53;;;;;;;39.58;12.55;;;7.90;99.90;;;;;;4999832;28;88102;-32
2022/09/28 07:45:20;;;;;;;15.15;10.68;;;8.00;99.90;;;;;;4999717;28;92067;-30
2022/09/28 07:47:47;;;;;;;26.02;14.68;;;8.00;99.90;;;;;;4999712;28;89614;-29
2022/09/28 07:50:12;;;;;;;31.00;13.77;;;8.00;99.90;;;;;;5000421;28;90171;-32
2022/09/28 07:52:38;;;;;;;35.55;12.93;;;8.00;99.90;;;;;;4999234;28;88252;-31
2022/09/28 07:55:04;;;;;;;30.23;13.63;;;8.00;99.90;;;;;;5000261;28;88689;-33
2022/09/28 07:57:32;;;;;;;16.45;10.85;;;8.00;99.90;;;;;;4999797;28;89999;-29
2022/09/28 07:59:59;;;;;;;20.25;11.05;;;8.10;99.90;;;;;;4999570;28;89866;-33
2022/09/28 08:02:25;;;;;;;32.63;12.88;;;8.20;99.90;;;;;;4998070;28;89004;-36
2022/09/28 08:04:51;;;;;;;27.45;11.00;;;8.30;99.90;;;;;;5000220;28;90194;-31
2022/09/28 08:07:17;;;;;;;21.83;10.77;;;8.30;99.90;;;;;;4999788;28;89470;-30
2022/09/28 08:09:44;;;;;;;19.38;9.75;;;8.30;99.90;;;;;;4999551;28;89555;-30
2022/09/28 08:12:11;;;;;;;13.70;10.05;;;8.30;99.90;;;;;;4999622;28;88705;-33
2022/09/28 08:14:37;;;;;;;12.68;9.95;;;8.40;99.90;;;;;;4998994;28;90149;-33
2022/09/28 08:17:05;;;;;;;13.63;10.35;;;8.50;99.90;;;;;;5000310;28;89545;-33
2022/09/28 08:22:17;;;;;;;13.90;10.02;;;8.70;99.90;;;;;;4999590;28;89341;-31
2022/09/28 08:24:44;;;;;;;24.08;12.75;;;8.70;99.90;;;;;;4999652;28;90271;-30
2022/09/28 08:27:10;;;;;;;13.25;11.25;;;8.80;99.90;;;;;;4967631;28;90729;-33
2022/09/28 08:29:36;;;;;;;11.90;10.25;;;8.90;99.90;;;;;;4999853;28;89059;-29
2022/09/28 08:32:03;;;;;;;14.20;10.32;;;8.90;99.90;;;;;;4999754;28;89834;-31
2022/09/28 08:34:28;;;;;;;14.25;9.85;;;9.00;99.90;;;;;;4999408;28;90095;-30
2022/09/28 08:36:58;;;;;;;13.05;10.18;;;9.00;99.90;;;;;;4999339;28;90681;-30
2022/09/28 08:39:23;;;;;;;14.27;10.25;;;9.10;99.90;;;;;;4998864;28;90476;-33
2022/09/28 08:42:04;;;;;;;12.60;9.82;;;9.10;99.90;;;;;;4999760;28;89348;-30
2022/09/28 08:44:42;;;;;;;11.27;10.07;;;9.20;99.90;;;;;;4998965;28;89899;-33
2022/09/28 08:48:42;;;;;;;9.35;8.43;;;9.30;99.90;;;;;;4998247;28;88695;-33
2022/09/28 08:50:03;;;;;;;12.93;9.90;;;9.30;99.90;;;;;;4999922;28;89675;-29
2022/09/28 08:52:35;;;;;;;10.05;8.02;;;9.40;99.90;;;;;;4999699;28;89341;-32
2022/09/28 08:55:17;;;;;;;10.63;8.48;;;9.60;99.90;;;;;;5000276;28;90239;-30
2022/09/28 08:58:01;;;;;;;10.48;8.55;;;9.70;99.90;;;;;;4999174;28;89747;-31
2022/09/28 09:00:39;;;;;;;10.35;9.00;;;9.80;99.90;;;;;;4999364;28;89288;-32
2022/09/28 09:03:10;;;;;;;9.85;8.63;;;9.90;99.90;;;;;;4999368;28;90547;-30
2022/09/28 09:05:45;;;;;;;10.73;8.52;;;10.00;99.90;;;;;;4999902;28;89989;-31
2022/09/28 09:08:34;;;;;;;8.70;7.82;;;10.20;99.90;;;;;;4998988;28;89902;-32
2022/09/28 09:11:19;;;;;;;8.88;7.97;;;10.30;99.90;;;;;;4999186;28;89410;-31
2022/09/28 09:14:05;;;;;;;8.77;7.90;;;10.40;99.90;;;;;;4999839;28;89774;-32
2022/09/28 09:16:54;;;;;;;9.02;8.07;;;10.60;99.90;;;;;;4999742;28;89739;-31
2022/09/28 09:19:29;;;;;;;10.68;8.63;;;10.60;99.90;;;;;;4999677;28;89729;-31
2022/09/28 09:22:04;;;;;;;12.48;8.35;;;10.60;99.90;;;;;;4998877;28;90360;-32
2022/09/28 09:24:46;;;;;;;10.30;9.23;;;10.50;99.90;;;;;;5000228;28;89208;-32
2022/09/28 09:27:17;;;;;;;9.45;7.43;;;10.40;99.90;;;;;;4998622;28;90274;-29
2022/09/28 09:30:07;;;;;;;11.10;8.80;;;10.30;99.90;;;;;;4998807;28;90927;-31
2022/09/28 09:32:52;;;;;;;10.55;7.88;;;10.20;99.90;;;;;;4998617;28;90742;-31
2022/09/28 09:35:39;;;;;;;7.65;6.85;;;10.20;99.90;;;;;;4998538;28;88169;-33
2022/09/28 09:38:31;;;;;;;7.57;6.78;;;10.20;99.90;;;;;;4999105;28;89912;-33
2022/09/28 09:41:09;;;;;;;9.95;6.93;;;10.30;99.90;;;;;;4999200;28;90825;-32
2022/09/28 09:43:43;;;;;;;15.25;8.13;;;10.40;99.90;;;;;;4998702;28;90135;-30
2022/09/28 09:46:13;;;;;;;7.55;6.75;;;10.40;99.90;;;;;;4999338;28;89100;-32
2022/09/28 09:48:54;;;;;;;12.00;9.15;;;10.40;99.90;;;;;;4998884;28;88787;-30
2022/09/28 09:51:26;;;;;;;10.02;9.02;;;10.50;99.90;;;;;;4998677;28;89938;-30
2022/09/28 09:53:58;;;;;;;9.18;7.95;;;10.70;99.90;;;;;;4998603;28;89657;-32
2022/09/28 09:56:42;;;;;;;9.98;7.68;;;10.90;99.90;;;;;;4998711;28;89220;-28
2022/09/28 09:59:18;;;;;;;9.82;8.43;;;11.10;99.90;;;;;;4998906;28;88887;-31
2022/09/28 10:01:44;;;;;;;8.85;7.88;;;11.50;99.90;;;;;;4998843;28;88670;-30
2022/09/28 10:04:33;;;;;;;8.60;7.00;;;11.70;99.90;;;;;;4998126;28;90733;-32
2022/09/28 10:07:03;;;;;;;9.00;7.00;;;11.80;99.90;;;;;;4998746;28;87871;-30
2022/09/28 10:09:38;;;;;;;8.43;7.25;;;11.70;99.90;;;;;;4998503;28;90754;-32
2022/09/28 10:12:09;;;;;;;8.85;7.00;;;11.50;99.90;;;;;;4998704;28;89732;-34
2022/09/28 10:14:35;;;;;;;7.25;6.22;;;11.50;99.90;;;;;;4998634;28;89361;-30
2022/09/28 10:17:02;;;;;;;9.07;6.13;;;11.50;99.90;;;;;;4998778;28;88343;-29
2022/09/28 10:19:31;;;;;;;9.15;7.22;;;11.50;99.90;;;;;;4998395;28;92053;-30
2022/09/28 10:22:01;;;;;;;6.70;6.07;;;11.50;99.90;;;;;;4997895;28;90229;-30
2022/09/28 10:24:37;;;;;;;6.82;5.70;;;11.60;99.90;;;;;;4998220;28;90311;-31
2022/09/28 10:27:12;;;;;;;6.38;5.45;;;11.70;99.90;;;;;;5001380;28;89450;-30
2022/09/28 10:30:15;;;;;;;9.48;7.65;;;11.70;99.90;;;;;;4984073;28;89864;-30
2022/09/28 10:32:43;;;;;;;8.63;7.30;;;11.80;99.90;;;;;;4968728;28;89908;-33
2022/09/28 10:35:18;;;;;;;8.02;7.22;;;11.90;99.90;;;;;;4983570;28;89982;-30
2022/09/28 10:37:55;;;;;;;8.25;6.85;;;12.00;99.90;;;;;;5001930;28;89594;-32
2022/09/28 10:40:46;;;;;;;8.98;5.82;;;12.20;99.90;;;;;;5001312;28;89769;-31
2022/09/28 10:43:25;;;;;;;5.72;5.07;;;12.20;99.90;;;;;;5001698;28;89970;-32
2022/09/28 10:46:12;;;;;;;8.05;6.97;;;12.30;99.90;;;;;;5001915;28;89520;-30
2022/09/28 10:48:52;;;;;;;13.90;6.80;;;12.30;99.90;;;;;;5001734;28;89998;-29
2022/09/28 10:51:18;;;;;;;12.05;6.68;;;12.50;99.90;;;;;;4984185;28;90271;-33
2022/09/28 10:54:00;;;;;;;6.50;5.82;;;12.60;99.90;;;;;;4978375;28;89754;-31
2022/09/28 10:56:35;;;;;;;8.13;7.40;;;12.60;99.90;;;;;;4963804;28;89376;-32
2022/09/28 10:59:12;;;;;;;7.47;5.65;;;12.60;99.90;;;;;;4981729;28;88880;-33
2022/09/28 11:01:37;;;;;;;6.18;5.57;;;12.60;99.90;;;;;;4977151;28;90735;-34
2022/09/28 11:04:06;;;;;;;6.35;4.35;;;12.60;99.90;;;;;;4981319;28;89842;-31
2022/09/28 11:06:37;;;;;;;5.90;5.30;;;12.50;99.90;;;;;;4971097;28;89464;-29
2022/09/28 11:09:26;;;;;;;6.50;4.65;;;12.40;99.90;;;;;;4976452;28;89920;-31
2022/09/28 11:11:52;;;;;;;6.22;4.75;;;12.40;99.90;;;;;;4969488;28;89047;-32
2022/09/28 11:14:34;;;;;;;4.78;4.20;;;12.40;99.90;;;;;;4980118;28;89702;-32
2022/09/28 11:17:27;;;;;;;8.23;5.03;;;12.40;99.90;;;;;;4981357;28;90026;-31
2022/09/28 11:19:55;;;;;;;7.22;5.50;;;12.60;99.90;;;;;;4992729;28;89159;-30
2022/09/28 11:22:28;;;;;;;6.03;4.93;;;12.80;99.90;;;;;;5000961;28;89973;-31
2022/09/28 11:25:19;;;;;;;7.20;5.65;;;13.10;99.90;;;;;;5001154;28;89641;-31
2022/09/28 11:27:51;;;;;;;8.18;5.47;;;13.40;99.90;;;;;;5000985;28;88913;-30
2022/09/28 11:30:48;;;;;;;5.30;4.60;;;13.50;99.90;;;;;;5001042;28;89575;-32
2022/09/28 11:33:29;;;;;;;6.63;5.20;;;13.50;99.90;;;;;;4993256;28;90429;-31
2022/09/28 11:35:59;;;;;;;7.47;5.22;;;13.60;99.90;;;;;;5000227;28;90361;-33
2022/09/28 11:38:34;;;;;;;5.43;4.93;;;13.80;99.90;;;;;;5000728;28;89949;-30
2022/09/28 11:41:13;;;;;;;5.97;4.68;;;13.90;99.90;;;;;;5000882;28;89295;-31
2022/09/28 11:44:05;;;;;;;7.53;5.22;;;14.20;99.90;;;;;;5001153;28;90486;-31
2022/09/28 11:47:08;;;;;;;4.88;3.85;;;14.20;99.90;;;;;;5000026;28;90009;-32
2022/09/28 11:50:00;;;;;;;8.23;6.68;;;14.30;99.90;;;;;;5000178;28;89536;-33
2022/09/28 11:52:37;;;;;;;5.40;4.90;;;14.40;99.90;;;;;;5000815;28;88569;-32
2022/09/28 11:55:15;;;;;;;6.18;5.20;;;14.40;99.90;;;;;;5001318;28;89846;-31
2022/09/28 11:57:45;;;;;;;7.05;5.55;;;14.50;99.90;;;;;;4993000;28;89178;-32
2022/09/28 12:00:15;;;;;;;8.00;6.65;;;14.70;99.90;;;;;;4981528;28;90229;-33
2022/09/28 12:02:46;;;;;;;7.65;5.70;;;14.80;99.90;;;;;;4980958;28;88394;-32
2022/09/28 12:05:24;;;;;;;7.80;7.00;;;14.70;99.90;;;;;;4980548;28;90165;-34
2022/09/28 12:07:55;;;;;;;6.88;5.43;;;14.70;99.90;;;;;;4979676;28;90629;-33
2022/09/28 12:10:47;;;;;;;5.65;5.15;;;14.60;99.90;;;;;;4978181;28;90577;-32
2022/09/28 12:13:21;;;;;;;6.57;4.82;;;14.60;99.90;;;;;;4976143;28;88997;-31
2022/09/28 12:15:53;;;;;;;7.63;5.53;;;14.60;99.90;;;;;;4980499;28;89940;-35
2022/09/28 12:18:28;;;;;;;4.63;4.10;;;14.70;99.90;;;;;;4975043;28;89390;-32
2022/09/28 12:21:19;;;;;;;4.63;4.18;;;14.80;99.90;;;;;;5000135;28;90063;-32
2022/09/28 12:23:47;;;;;;;4.50;4.10;;;14.80;99.90;;;;;;4999614;28;90230;-33
2022/09/28 12:26:40;;;;;;;6.82;4.35;;;14.80;99.90;;;;;;5000168;28;90308;-33
2022/09/28 12:29:14;;;;;;;3.17;2.85;;;14.60;99.90;;;;;;5000153;28;90961;-34
2022/09/28 12:32:11;;;;;;;3.72;3.33;;;14.40;99.90;;;;;;4977605;28;89744;-33
2022/09/28 12:34:39;;;;;;;4.43;3.77;;;14.30;99.90;;;;;;4977804;28;90072;-31
2022/09/28 12:37:04;;;;;;;4.53;3.75;;;14.20;99.90;;;;;;4979036;28;90250;-31
2022/09/28 12:39:54;;;;;;;4.65;4.20;;;14.10;99.90;;;;;;4978278;28;90298;-30
2022/09/28 12:42:39;;;;;;;5.88;4.78;;;14.10;99.90;;;;;;4978602;28;89795;-31
2022/09/28 12:45:11;;;;;;;5.75;3.95;;;14.10;99.90;;;;;;4979453;28;88784;-32
2022/09/28 12:48:12;;;;;;;8.05;4.40;;;14.10;99.90;;;;;;5010285;22;89158;-29
2022/09/28 12:51:03;;;;;;;3.50;3.17;;;14.10;99.90;;;;;;4971993;28;89787;-32
2022/09/28 12:53:38;;;;;;;3.22;2.92;;;14.20;99.90;;;;;;4979790;28;89528;-33
2022/09/28 12:56:10;;;;;;;3.92;3.28;;;14.30;99.90;;;;;;4979352;28;88842;-32
2022/09/28 12:58:52;;;;;;;3.70;3.25;;;14.50;99.90;;;;;;4979192;28;90433;-33
2022/09/28 13:01:37;;;;;;;3.25;2.80;;;14.50;99.90;;;;;;4978651;28;90207;-32
2022/09/28 13:04:23;;;;;;;3.00;2.22;;;14.50;99.90;;;;;;4978997;28;90734;-28
2022/09/28 13:06:55;;;;;;;6.68;4.07;;;14.50;99.90;;;;;;4979284;28;89799;-32
2022/09/28 13:09:23;;;;;;;6.32;3.92;;;14.50;99.90;;;;;;4971859;28;89815;-30
2022/09/28 13:12:19;;;;;;;3.63;3.33;;;14.40;99.90;;;;;;4978648;28;88696;-32
2022/09/28 13:15:20;;;;;;;4.00;3.63;;;14.40;99.90;;;;;;4973536;28;90427;-32
2022/09/28 13:18:00;;;;;;;4.28;3.22;;;14.30;99.90;;;;;;4979560;28;89354;-32
2022/09/28 13:20:55;;;;;;;4.82;4.20;;;14.40;99.90;;;;;;4979102;28;89913;-30